aviador You're here:

LFBL Decoded Metar

LIMOGES in FRANCE
Report Time2017-08-23 04:00:00
UTC Time2017-08-23 04:12:59
Flight Rules ifr IFR
Wind220° at 07 kt
W.Decomp.*RWY 21: 6.9 kt HW 1.3 kt RCW
W.Rank220° ranks 11
Current wind is below 220° avg. (8.0)
Visibility9999 m
Phenomena:Light Drizzle
Clouds:Broken 009 Hf
Overcast 014 Hf
Expected CloudBase > 400 ft AGL from Temp-Dew spread
Ceiling900 ft
Temp18°C (ISA +6)
Dew Point17°C (94% RH)
AAT17.9°C
QNH1018 hPa
Density Alt2,073 ft
Elevation1,319 ft
Report Wrong Elevation
Raw Report
METAR LFBL 230400Z AUTO 22007KT 9999 BKN009 OVC014 18/17 Q1018 TEMPO
3000 -DZ OVC003=

Extra information for LFBL:More info

Metar Taf Metar & Taf Last 4 Metars F.Rules Stats Wind Profile Meteogram Temp Stats Airport Information Weather charts Add Link Nearby VenuesMetar ALERT Operation Metar Decoded Social comments